Time;durP1;ratioP1;P1;durP2;ratioP2;P2;SDS_P1;SDS_P2;PMS_P1;PMS_P2;Temp;Humidity;BMP_temperature;BMP_pressure;BME280_temperature;BME280_humidity;BME280_pressure;Samples;Min_cycle;Max_cycle;Signal;HPM_P1;HPM_P2
2022/08/18 00:02:15;;;;;;;7.50;3.35;;;12.40;99.90;;;;;;4905496;29;20044;-74
2022/08/18 00:04:43;;;;;;;4.47;3.13;;;12.50;99.90;;;;;;4907185;29;20034;-76
2022/08/18 00:07:15;;;;;;;4.78;2.97;;;12.80;99.90;;;;;;4911828;29;20035;-76
2022/08/18 00:09:43;;;;;;;3.85;2.67;;;13.00;99.90;;;;;;4899764;29;20047;-76
2022/08/18 00:12:20;;;;;;;7.38;3.50;;;13.30;99.90;;;;;;4912074;29;20036;-76
2022/08/18 00:14:48;;;;;;;6.82;2.85;;;13.40;99.90;;;;;;4899575;29;20099;-77
2022/08/18 00:17:17;;;;;;;5.30;3.55;;;13.60;99.90;;;;;;4906170;29;20028;-79
2022/08/18 00:19:46;;;;;;;8.82;3.47;;;13.70;99.90;;;;;;4913808;29;20051;-77
2022/08/18 00:22:17;;;;;;;6.38;3.28;;;13.70;99.90;;;;;;4911472;29;20040;-78
2022/08/18 00:24:50;;;;;;;6.63;2.55;;;13.80;99.90;;;;;;4890539;29;20028;-75
2022/08/18 00:27:21;;;;;;;4.05;2.15;;;14.00;99.90;;;;;;4906085;29;20027;-76
2022/08/18 00:29:49;;;;;;;4.32;2.20;;;14.30;99.90;;;;;;4905884;29;20123;-78
2022/08/18 00:32:20;;;;;;;4.47;1.98;;;14.40;99.90;;;;;;4905450;29;20119;-75
2022/08/18 00:34:47;;;;;;;7.25;2.60;;;14.50;99.90;;;;;;4902567;29;20043;-78
2022/08/18 00:37:15;;;;;;;4.15;2.08;;;14.60;99.90;;;;;;4906419;29;20028;-75
2022/08/18 00:39:43;;;;;;;4.97;1.75;;;14.80;99.90;;;;;;4907460;29;20051;-79
2022/08/18 00:42:28;;;;;;;2.58;1.70;;;15.70;99.90;;;;;;4885101;29;20048;-78
2022/08/18 00:44:58;;;;;;;3.33;1.70;;;17.20;99.80;;;;;;4907358;29;20048;-77
2022/08/18 00:47:28;;;;;;;5.63;1.42;;;18.50;97.30;;;;;;4900450;29;20044;-78
2022/08/18 00:49:56;;;;;;;1.92;1.27;;;19.00;95.80;;;;;;4902177;29;20034;-76
2022/08/18 00:52:25;;;;;;;1.73;1.25;;;18.70;94.60;;;;;;4906319;29;20036;-79
2022/08/18 00:54:54;;;;;;;1.67;0.85;;;18.40;95.10;;;;;;4914148;29;20042;-77
2022/08/18 00:57:23;;;;;;;2.70;1.52;;;18.70;95.40;;;;;;4912613;29;20054;-78
2022/08/18 01:00:10;;;;;;;3.25;1.25;;;19.60;94.90;;;;;;4901371;29;20479;-82
2022/08/18 01:02:45;;;;;;;2.35;1.27;;;20.60;94.00;;;;;;4901195;29;20563;-79
2022/08/18 01:05:25;;;;;;;2.47;0.85;;;21.50;92.60;;;;;;4902005;29;20028;-80
2022/08/18 01:07:53;;;;;;;2.05;0.70;;;21.70;90.70;;;;;;4903289;29;20039;-76
2022/08/18 01:10:22;;;;;;;2.60;0.80;;;21.50;91.10;;;;;;4915233;29;20076;-78
2022/08/18 01:12:56;;;;;;;2.53;0.80;;;21.80;90.70;;;;;;4904563;29;20032;-77
2022/08/18 01:15:26;;;;;;;2.25;1.25;;;22.40;90.10;;;;;;4908765;29;20111;-74
2022/08/18 01:23:29;;;;;;;2.27;0.73;;;23.70;84.40;;;;;;4907612;29;20464;-74
2022/08/18 01:26:00;;;;;;;1.00;0.52;;;23.90;86.20;;;;;;4911111;29;20116;-74
2022/08/18 01:28:34;;;;;;;1.50;0.45;;;24.20;83.00;;;;;;4898581;29;20054;-75
2022/08/18 01:31:03;;;;;;;1.95;0.90;;;24.30;83.60;;;;;;4911490;29;20119;-74
2022/08/18 01:33:42;;;;;;;2.15;0.85;;;24.40;82.20;;;;;;4899215;29;20464;-75
2022/08/18 01:36:15;;;;;;;2.80;1.45;;;24.20;82.00;;;;;;4902610;29;20044;-73
2022/08/18 01:38:44;;;;;;;2.33;0.73;;;23.70;82.70;;;;;;4908190;29;20083;-76
2022/08/18 01:41:12;;;;;;;2.33;0.60;;;23.50;83.60;;;;;;4904732;29;20044;-73
2022/08/18 01:43:40;;;;;;;1.83;0.93;;;23.90;81.30;;;;;;4919282;29;20051;-73
2022/08/18 01:46:08;;;;;;;3.38;1.02;;;24.60;82.50;;;;;;4905724;29;20036;-73
2022/08/18 01:48:37;;;;;;;2.42;0.85;;;25.00;81.10;;;;;;4907784;29;20032;-74
2022/08/18 01:51:07;;;;;;;2.67;1.08;;;24.80;79.90;;;;;;4909990;29;20036;-74
2022/08/18 01:53:35;;;;;;;0.80;0.50;;;24.80;79.30;;;;;;4908963;29;20428;-73
2022/08/18 01:56:04;;;;;;;1.80;0.70;;;23.50;79.50;;;;;;4906055;29;20041;-73
2022/08/18 01:58:36;;;;;;;3.38;1.88;;;22.40;83.30;;;;;;4898498;29;20650;-76
2022/08/18 02:01:05;;;;;;;2.83;1.00;;;21.60;83.20;;;;;;4903409;29;20060;-75
2022/08/18 02:03:37;;;;;;;3.33;0.93;;;21.10;84.60;;;;;;4902648;29;20024;-75
2022/08/18 02:06:09;;;;;;;2.70;0.80;;;20.80;86.50;;;;;;4905020;29;20510;-75
2022/08/18 02:08:37;;;;;;;2.30;0.90;;;20.50;86.20;;;;;;4903726;29;20068;-72
2022/08/18 02:11:06;;;;;;;2.25;1.10;;;20.50;86.20;;;;;;4908903;29;20538;-75
2022/08/18 02:13:34;;;;;;;7.10;1.05;;;20.70;85.50;;;;;;4900696;29;20024;-75
2022/08/18 02:16:03;;;;;;;1.13;0.93;;;21.30;83.90;;;;;;4905927;29;20111;-74
2022/08/18 02:18:34;;;;;;;2.17;0.90;;;21.70;82.50;;;;;;4903104;29;20029;-74
2022/08/18 02:21:22;;;;;;;4.80;0.63;;;22.30;82.50;;;;;;4908552;29;20047;-74
2022/08/18 02:23:49;;;;;;;1.88;0.93;;;23.20;79.80;;;;;;4908657;29;20091;-77
2022/08/18 02:26:18;;;;;;;1.90;1.33;;;23.60;80.90;;;;;;4903791;29;20052;-74
2022/08/18 02:28:45;;;;;;;2.03;0.90;;;23.70;79.40;;;;;;4909651;29;20440;-75
2022/08/18 02:31:16;;;;;;;2.17;1.20;;;23.60;80.10;;;;;;4910457;29;20056;-74
2022/08/18 02:33:45;;;;;;;2.05;0.93;;;23.10;80.20;;;;;;4910099;29;20110;-74
2022/08/18 02:36:12;;;;;;;1.80;1.30;;;22.70;80.80;;;;;;4910309;29;20032;-74
2022/08/18 02:38:41;;;;;;;2.08;1.05;;;22.50;80.50;;;;;;4907186;29;20363;-75
2022/08/18 02:41:13;;;;;;;1.60;0.77;;;22.20;81.10;;;;;;4911001;29;20123;-73
2022/08/18 02:43:42;;;;;;;1.77;1.00;;;22.20;81.80;;;;;;4915252;29;20036;-75
2022/08/18 02:46:10;;;;;;;3.47;0.93;;;22.00;82.50;;;;;;4896810;29;20657;-75
2022/08/18 02:48:37;;;;;;;0.80;0.60;;;21.70;82.50;;;;;;4913256;29;20040;-74
2022/08/18 02:51:12;;;;;;;1.42;0.82;;;21.50;83.80;;;;;;4914771;29;20038;-75
2022/08/18 02:53:41;;;;;;;1.17;0.43;;;21.40;81.70;;;;;;4906336;29;20035;-73
2022/08/18 02:56:26;;;;;;;0.90;0.40;;;21.60;81.10;;;;;;4911222;29;20115;-72
2022/08/18 02:59:01;;;;;;;1.08;0.43;;;22.00;82.00;;;;;;4911060;29;20024;-71
2022/08/18 03:01:32;;;;;;;2.28;0.30;;;22.30;81.30;;;;;;4912918;29;20178;-73
2022/08/18 03:04:00;;;;;;;0.38;0.30;;;22.60;80.00;;;;;;4906701;29;20048;-75
2022/08/18 03:06:29;;;;;;;0.98;0.28;;;22.80;78.90;;;;;;4911279;29;20036;-76
2022/08/18 03:08:57;;;;;;;1.85;0.40;;;23.10;78.20;;;;;;4908974;29;20475;-75
2022/08/18 03:11:29;;;;;;;0.50;0.20;;;23.10;78.90;;;;;;4912438;29;20028;-76
2022/08/18 03:13:59;;;;;;;2.78;0.43;;;23.00;78.80;;;;;;4906456;29;20036;-80
2022/08/18 03:16:31;;;;;;;1.55;0.40;;;22.40;78.40;;;;;;4905894;29;20226;-75
2022/08/18 03:19:00;;;;;;;0.60;0.20;;;22.10;79.60;;;;;;4901279;29;20593;-77
2022/08/18 03:21:30;;;;;;;1.75;0.40;;;21.70;81.40;;;;;;4902969;29;20134;-79
2022/08/18 03:23:58;;;;;;;4.30;0.68;;;21.30;81.80;;;;;;4905639;29;20036;-76
2022/08/18 03:26:26;;;;;;;0.68;0.50;;;21.00;82.10;;;;;;4902857;29;20084;-77
2022/08/18 03:28:55;;;;;;;5.00;0.70;;;20.80;82.80;;;;;;4899962;29;20146;-75
2022/08/18 03:31:24;;;;;;;0.90;0.50;;;20.70;82.60;;;;;;4905174;29;20067;-77
2022/08/18 03:33:52;;;;;;;4.18;0.55;;;20.70;83.40;;;;;;4906393;29;20028;-76
2022/08/18 03:36:23;;;;;;;0.50;0.40;;;20.70;83.10;;;;;;4898264;29;20043;-76
2022/08/18 03:38:52;;;;;;;2.55;0.63;;;20.60;84.10;;;;;;4903567;29;20371;-75
2022/08/18 03:41:22;;;;;;;0.90;0.60;;;20.60;83.70;;;;;;4901893;29;20075;-75
2022/08/18 03:43:51;;;;;;;2.42;0.50;;;20.60;83.90;;;;;;4902415;29;20039;-75
2022/08/18 03:46:20;;;;;;;0.90;0.60;;;20.60;84.10;;;;;;4900683;29;20858;-72
2022/08/18 03:48:49;;;;;;;2.85;1.48;;;20.60;84.70;;;;;;4899297;29;20036;-75
2022/08/18 03:51:23;;;;;;;1.75;1.10;;;20.60;86.10;;;;;;4906983;29;20082;-75
2022/08/18 03:53:52;;;;;;;3.80;1.40;;;20.50;85.90;;;;;;4902915;29;20483;-74
2022/08/18 03:56:22;;;;;;;1.08;0.70;;;20.50;86.30;;;;;;4901694;29;20538;-72
2022/08/18 03:58:53;;;;;;;2.67;0.60;;;20.40;85.90;;;;;;4897838;29;20080;-72
2022/08/18 04:01:24;;;;;;;2.05;0.73;;;20.20;86.10;;;;;;4903386;29;20163;-74
2022/08/18 04:03:59;;;;;;;1.35;1.02;;;20.10;86.50;;;;;;4884054;29;20078;-72
2022/08/18 04:06:33;;;;;;;0.95;0.40;;;20.10;87.20;;;;;;4906693;29;20080;-72
2022/08/18 04:09:04;;;;;;;3.28;1.30;;;20.10;88.10;;;;;;4899476;29;20048;-72
2022/08/18 04:11:33;;;;;;;1.33;0.65;;;20.20;88.00;;;;;;4899734;29;20055;-73
2022/08/18 04:14:00;;;;;;;2.38;0.70;;;20.20;87.80;;;;;;4899670;29;20032;-73
2022/08/18 04:16:33;;;;;;;1.73;0.98;;;20.20;88.70;;;;;;4903983;29;20098;-73
2022/08/18 04:19:02;;;;;;;2.10;0.63;;;20.20;87.00;;;;;;4898898;29;20067;-72
2022/08/18 04:21:32;;;;;;;1.17;0.60;;;20.20;89.10;;;;;;4901307;29;20036;-72
2022/08/18 04:24:02;;;;;;;0.88;0.60;;;20.20;87.80;;;;;;4897301;29;21660;-72
2022/08/18 04:26:31;;;;;;;2.83;0.80;;;20.20;87.80;;;;;;4899017;29;20046;-73
2022/08/18 04:29:02;;;;;;;2.83;0.60;;;20.30;86.50;;;;;;4901497;29;20036;-73
2022/08/18 04:31:30;;;;;;;1.67;0.88;;;20.30;86.70;;;;;;4898807;29;20028;-74
2022/08/18 04:34:00;;;;;;;0.88;0.55;;;20.20;87.60;;;;;;4900515;29;20032;-73
2022/08/18 04:36:30;;;;;;;1.27;0.50;;;20.20;87.60;;;;;;4899606;29;20035;-79
2022/08/18 04:38:58;;;;;;;1.15;0.70;;;20.30;88.00;;;;;;4901826;29;20382;-78
2022/08/18 04:41:26;;;;;;;2.55;1.45;;;20.40;88.30;;;;;;4906316;29;20047;-78
2022/08/18 04:44:02;;;;;;;3.70;0.60;;;20.50;87.60;;;;;;4901971;29;20032;-77
2022/08/18 04:46:29;;;;;;;;;;;20.50;87.50;;;;;;4897413;29;20032;-73
2022/08/18 04:48:58;;;;;;;6.55;0.90;;;20.50;87.10;;;;;;4898600;29;20654;-75
2022/08/18 04:51:29;;;;;;;1.83;0.90;;;20.60;88.20;;;;;;4903153;29;20032;-74
2022/08/18 04:53:59;;;;;;;1.73;0.70;;;20.70;87.50;;;;;;4895076;29;20087;-75
2022/08/18 04:56:31;;;;;;;1.73;0.90;;;20.70;87.40;;;;;;4896495;29;20039;-75
2022/08/18 04:59:03;;;;;;;7.60;1.45;;;20.70;87.70;;;;;;4901830;29;20036;-76
2022/08/18 05:01:39;;;;;;;2.25;1.10;;;20.60;86.60;;;;;;4899926;29;20131;-76
2022/08/18 05:04:08;;;;;;;3.03;1.25;;;20.60;87.70;;;;;;4902278;29;20057;-75
2022/08/18 05:06:36;;;;;;;1.80;0.45;;;20.40;87.90;;;;;;4900343;29;20020;-75
2022/08/18 05:09:07;;;;;;;1.23;0.93;;;20.40;87.70;;;;;;4902075;29;20055;-75
2022/08/18 05:11:35;;;;;;;0.95;0.30;;;20.30;87.10;;;;;;4900827;29;20024;-73
2022/08/18 05:14:06;;;;;;;1.88;0.40;;;20.20;87.10;;;;;;4902139;29;20025;-75
2022/08/18 05:16:36;;;;;;;0.63;0.40;;;20.10;87.70;;;;;;4900865;29;20055;-74
2022/08/18 05:19:08;;;;;;;0.50;0.30;;;20.00;87.80;;;;;;4901265;29;20024;-74
2022/08/18 05:21:38;;;;;;;1.15;0.32;;;20.10;88.30;;;;;;4898512;29;20139;-74
2022/08/18 05:24:06;;;;;;;0.60;0.40;;;20.00;88.80;;;;;;4900851;29;20032;-74
2022/08/18 05:26:34;;;;;;;1.67;0.28;;;20.00;89.20;;;;;;4901093;29;20047;-74
2022/08/18 05:29:03;;;;;;;0.30;0.20;;;19.90;89.10;;;;;;4901160;29;20147;-73
2022/08/18 05:31:31;;;;;;;1.13;0.30;;;19.90;87.00;;;;;;4900954;29;22283;-75
2022/08/18 05:34:03;;;;;;;0.50;0.30;;;19.90;87.50;;;;;;4908013;29;20079;-74
2022/08/18 05:36:49;;;;;;;1.20;0.60;;;19.90;87.90;;;;;;4899833;29;20166;-74
2022/08/18 05:39:18;;;;;;;;;;;19.90;88.10;;;;;;4902909;29;20123;-74
2022/08/18 05:42:10;;;;;;;0.60;0.40;;;19.90;88.40;;;;;;4900297;29;19950;-74
2022/08/18 05:44:44;;;;;;;5.60;1.38;;;19.80;88.70;;;;;;4902847;29;20028;-74
2022/08/18 05:47:28;;;;;;;2.80;0.85;;;19.70;89.50;;;;;;4897103;29;20046;-77
2022/08/18 05:50:02;;;;;;;2.70;0.82;;;19.60;90.30;;;;;;4899538;29;20146;-75
2022/08/18 05:52:54;;;;;;;0.90;0.50;;;19.50;90.60;;;;;;4897939;29;20024;-75
2022/08/18 05:58:41;;;;;;;2.45;0.95;;;19.30;91.60;;;;;;4899803;29;20182;-74
2022/08/18 06:01:23;;;;;;;3.10;0.75;;;19.20;91.90;;;;;;4899436;29;20036;-75
2022/08/18 06:04:00;;;;;;;3.40;1.13;;;19.20;91.90;;;;;;4904906;29;20050;-74
2022/08/18 06:06:29;;;;;;;4.03;0.90;;;19.10;91.90;;;;;;4904060;29;20028;-75
2022/08/18 06:09:15;;;;;;;1.77;0.88;;;19.10;91.60;;;;;;4898178;29;20056;-73
2022/08/18 06:11:43;;;;;;;2.63;0.63;;;19.10;91.70;;;;;;4906517;29;20021;-73
2022/08/18 06:14:12;;;;;;;1.40;0.90;;;19.00;91.80;;;;;;4910499;29;20391;-74
2022/08/18 06:17:04;;;;;;;1.58;0.43;;;19.00;91.90;;;;;;4907720;29;20032;-72
2022/08/18 06:19:45;;;;;;;1.58;0.52;;;19.00;92.10;;;;;;4911883;29;20044;-73
2022/08/18 06:22:28;;;;;;;1.10;0.55;;;19.10;92.40;;;;;;4896942;29;20045;-72
2022/08/18 06:25:01;;;;;;;0.50;0.30;;;19.00;92.30;;;;;;4914636;29;20107;-73
2022/08/18 06:27:55;;;;;;;1.92;0.68;;;19.10;92.50;;;;;;4909918;29;20119;-74
2022/08/18 06:30:36;;;;;;;1.17;0.50;;;19.00;92.30;;;;;;4912935;29;20060;-74
2022/08/18 06:33:35;;;;;;;0.60;0.40;;;18.90;92.60;;;;;;4910074;29;20035;-74
2022/08/18 06:36:30;;;;;;;0.93;0.70;;;18.80;92.70;;;;;;4910328;29;20036;-73
2022/08/18 06:39:20;;;;;;;1.02;0.90;;;18.70;92.60;;;;;;4908630;29;20032;-74
2022/08/18 06:41:49;;;;;;;0.85;0.45;;;18.60;92.80;;;;;;4904136;29;20084;-74
2022/08/18 06:44:17;;;;;;;3.10;1.67;;;18.50;93.10;;;;;;4912698;29;20052;-73
2022/08/18 06:47:12;;;;;;;2.08;0.80;;;18.40;93.60;;;;;;4901593;29;20056;-74
2022/08/18 06:49:53;;;;;;;5.18;0.80;;;18.40;93.90;;;;;;4909733;29;20443;-74
2022/08/18 06:52:26;;;;;;;2.83;0.80;;;18.30;94.00;;;;;;4902429;29;20043;-74
2022/08/18 06:54:59;;;;;;;5.80;1.00;;;18.40;94.00;;;;;;4909216;29;20387;-74
2022/08/18 06:58:00;;;;;;;3.22;1.13;;;18.50;94.10;;;;;;4905115;29;20391;-74
2022/08/18 07:00:35;;;;;;;2.42;1.10;;;18.40;94.40;;;;;;4911518;29;20040;-73
2022/08/18 07:03:14;;;;;;;3.25;1.50;;;18.40;94.50;;;;;;4909511;29;20123;-73
2022/08/18 07:06:12;;;;;;;4.68;1.48;;;18.30;94.60;;;;;;4913694;29;20059;-73
2022/08/18 07:08:43;;;;;;;3.60;1.48;;;18.20;95.10;;;;;;4909169;29;20067;-73
2022/08/18 07:11:31;;;;;;;4.25;1.70;;;18.10;95.60;;;;;;4915673;29;20473;-74
2022/08/18 07:14:16;;;;;;;9.20;1.95;;;18.00;96.00;;;;;;4903598;29;20060;-74
2022/08/18 07:16:43;;;;;;;4.00;1.92;;;17.90;96.10;;;;;;4903267;29;20544;-74
2022/08/18 07:19:20;;;;;;;4.82;2.72;;;17.80;96.10;;;;;;4913722;29;20494;-74
2022/08/18 07:22:02;;;;;;;4.03;2.28;;;17.70;96.20;;;;;;4909038;29;20080;-73
2022/08/18 07:24:38;;;;;;;4.60;2.40;;;17.60;96.20;;;;;;4907416;29;20513;-73
2022/08/18 07:27:16;;;;;;;4.80;1.70;;;17.50;96.80;;;;;;4904203;29;20495;-73
2022/08/18 07:30:11;;;;;;;3.42;1.50;;;17.40;97.30;;;;;;4915585;29;20050;-75
2022/08/18 07:32:57;;;;;;;6.28;3.70;;;17.30;97.40;;;;;;4905843;29;20035;-75
2022/08/18 07:35:34;;;;;;;23.17;10.10;;;17.20;97.80;;;;;;4894027;29;20040;-74
2022/08/18 07:38:23;;;;;;;13.88;8.50;;;17.10;97.90;;;;;;4889741;29;20095;-74
2022/08/18 07:41:07;;;;;;;11.95;7.43;;;17.10;98.20;;;;;;4905464;29;20036;-75
2022/08/18 07:43:55;;;;;;;16.15;9.93;;;17.00;98.40;;;;;;4908580;29;20376;-74
2022/08/18 07:46:23;;;;;;;13.07;6.70;;;16.90;98.60;;;;;;4907956;29;20059;-74
2022/08/18 07:48:50;;;;;;;12.13;7.05;;;16.80;98.90;;;;;;4912709;29;20024;-74
2022/08/18 07:51:47;;;;;;;7.53;5.38;;;16.70;99.10;;;;;;4903385;29;20506;-74
2022/08/18 07:54:17;;;;;;;;;;;16.70;99.20;;;;;;4903947;29;20036;-73
2022/08/18 07:57:11;;;;;;;11.68;7.35;;;16.70;99.50;;;;;;4904851;29;20365;-74
2022/08/18 07:59:51;;;;;;;9.02;5.88;;;16.60;99.70;;;;;;4910423;29;20131;-73
2022/08/18 08:02:35;;;;;;;7.25;4.35;;;16.60;99.90;;;;;;4885284;29;22391;-75
2022/08/18 08:05:15;;;;;;;7.15;4.57;;;16.50;99.90;;;;;;4901663;29;20093;-74
2022/08/18 08:08:09;;;;;;;9.02;4.35;;;16.50;99.90;;;;;;4901046;29;20128;-74
2022/08/18 08:10:45;;;;;;;8.18;4.85;;;16.50;99.90;;;;;;4892532;29;20060;-75
2022/08/18 08:13:12;;;;;;;6.35;3.70;;;16.40;99.90;;;;;;4899485;29;20052;-76
2022/08/18 08:16:10;;;;;;;6.00;4.05;;;16.30;99.90;;;;;;4900330;29;20513;-75
2022/08/18 08:18:49;;;;;;;7.05;3.63;;;16.30;99.90;;;;;;4906421;29;20027;-75
2022/08/18 08:21:22;;;;;;;6.32;5.05;;;16.20;99.90;;;;;;4913581;29;20119;-75
2022/08/18 08:23:54;;;;;;;5.60;4.40;;;16.20;99.90;;;;;;4912394;29;20447;-73
2022/08/18 08:26:43;;;;;;;5.07;3.60;;;16.10;99.90;;;;;;4912740;29;20115;-76
2022/08/18 08:29:27;;;;;;;7.03;3.60;;;16.10;99.90;;;;;;4900994;29;20036;-74
2022/08/18 08:32:25;;;;;;;3.85;3.15;;;16.00;99.90;;;;;;4913059;29;20511;-74
2022/08/18 08:35:08;;;;;;;4.47;2.60;;;16.00;99.90;;;;;;4900786;29;20637;-74
2022/08/18 08:37:46;;;;;;;7.55;4.13;;;15.90;99.90;;;;;;4901219;29;20032;-74
2022/08/18 08:40:13;;;;;;;8.27;5.65;;;15.90;99.90;;;;;;4911761;29;20400;-75
2022/08/18 08:43:08;;;;;;;8.80;4.05;;;15.90;99.90;;;;;;4909572;29;20355;-74
2022/08/18 08:46:07;;;;;;;6.28;4.85;;;15.80;99.90;;;;;;4913858;29;20508;-76
2022/08/18 08:48:46;;;;;;;8.30;4.15;;;15.80;99.90;;;;;;4898498;29;20035;-76
2022/08/18 08:51:41;;;;;;;7.00;3.80;;;15.70;99.90;;;;;;4926013;29;20483;-76
2022/08/18 08:54:34;;;;;;;8.65;4.47;;;15.70;99.90;;;;;;4902069;29;20406;-75
2022/08/18 08:57:04;;;;;;;8.20;4.82;;;15.70;99.90;;;;;;4908113;29;20066;-75
2022/08/18 08:59:31;;;;;;;10.25;4.22;;;15.70;99.90;;;;;;4910756;29;20039;-76
2022/08/18 09:02:20;;;;;;;4.82;3.45;;;15.60;99.90;;;;;;4907766;29;20035;-73
2022/08/18 09:05:08;;;;;;;5.85;3.70;;;15.60;99.90;;;;;;4910972;29;20123;-73
2022/08/18 09:08:18;;;;;;;5.20;3.75;;;15.50;99.90;;;;;;4899770;29;20047;-75
2022/08/18 09:11:17;;;;;;;5.25;3.00;;;15.50;99.90;;;;;;4901330;29;20082;-73
2022/08/18 09:14:07;;;;;;;4.85;3.25;;;15.40;99.90;;;;;;4903791;29;20043;-73
2022/08/18 09:16:48;;;;;;;5.07;2.55;;;15.50;99.90;;;;;;4910422;29;20032;-72
2022/08/18 09:19:52;;;;;;;4.85;2.97;;;15.40;99.90;;;;;;4909740;29;20059;-72
2022/08/18 09:22:29;;;;;;;10.13;3.85;;;15.40;99.90;;;;;;4905882;29;20451;-73
2022/08/18 09:24:57;;;;;;;8.43;3.38;;;15.40;99.90;;;;;;4907948;29;20356;-73
2022/08/18 09:27:45;;;;;;;5.05;3.75;;;15.40;99.90;;;;;;4909972;29;20067;-73
2022/08/18 09:30:41;;;;;;;5.88;3.58;;;15.40;99.90;;;;;;4893983;29;20517;-72
2022/08/18 09:33:20;;;;;;;6.65;3.72;;;15.30;99.90;;;;;;4899022;29;20051;-73
2022/08/18 09:35:58;;;;;;;5.65;4.05;;;15.20;99.90;;;;;;4893893;29;20339;-73
2022/08/18 09:41:31;;;;;;;6.45;3.95;;;15.20;99.90;;;;;;4932923;29;20071;-76
2022/08/18 09:44:10;;;;;;;3.92;3.17;;;15.10;99.90;;;;;;4900027;29;20067;-73
2022/08/18 09:46:43;;;;;;;5.15;4.00;;;15.10;99.90;;;;;;4910444;29;20035;-72
2022/08/18 09:49:25;;;;;;;7.82;4.20;;;15.10;99.90;;;;;;4910831;29;20095;-73
2022/08/18 09:52:20;;;;;;;6.88;3.80;;;15.00;99.90;;;;;;4909184;29;20071;-73
2022/08/18 09:54:59;;;;;;;8.35;5.43;;;15.00;99.90;;;;;;4908992;29;20036;-73
2022/08/18 09:57:35;;;;;;;7.82;4.13;;;14.90;99.90;;;;;;4918815;29;20032;-73
2022/08/18 10:00:11;;;;;;;7.03;4.63;;;14.90;99.90;;;;;;4894280;29;20045;-73
2022/08/18 10:02:41;;;;;;;10.82;5.80;;;14.80;99.90;;;;;;4902914;29;20078;-74
2022/08/18 10:05:18;;;;;;;9.23;5.45;;;14.80;99.90;;;;;;4910296;29;20392;-73
2022/08/18 10:08:07;;;;;;;11.25;5.22;;;14.80;99.90;;;;;;4907385;29;20052;-73
2022/08/18 10:10:44;;;;;;;11.55;5.30;;;14.80;99.90;;;;;;4912560;29;20036;-74
2022/08/18 10:13:32;;;;;;;11.93;6.72;;;14.70;99.90;;;;;;4914798;29;20122;-74
2022/08/18 10:16:14;;;;;;;15.20;8.63;;;14.70;99.90;;;;;;4913163;29;20032;-76
2022/08/18 10:19:07;;;;;;;15.45;7.57;;;14.70;99.90;;;;;;4905680;29;20041;-78
2022/08/18 10:22:32;;;;;;;15.15;7.72;;;14.60;99.90;;;;;;4900291;29;20040;-75
2022/08/18 10:24:59;;;;;;;14.15;7.68;;;14.60;99.90;;;;;;4835002;29;20042;-75
2022/08/18 10:27:45;;;;;;;12.93;7.40;;;14.50;99.90;;;;;;4833902;29;20034;-74
2022/08/18 10:30:34;;;;;;;12.93;8.07;;;14.50;99.90;;;;;;4899151;29;20036;-77
2022/08/18 10:33:04;;;;;;;13.20;8.18;;;14.50;99.90;;;;;;4904741;29;20370;-76
2022/08/18 10:35:38;;;;;;;13.10;7.85;;;14.50;99.90;;;;;;4909829;29;20443;-76
2022/08/18 10:38:18;;;;;;;14.50;8.52;;;14.40;99.90;;;;;;4907680;29;20118;-75
2022/08/18 10:41:07;;;;;;;10.75;7.93;;;14.50;99.90;;;;;;4896149;29;20340;-75
2022/08/18 10:43:44;;;;;;;15.80;7.68;;;14.50;99.90;;;;;;4906246;29;20407;-76
2022/08/18 10:46:22;;;;;;;11.70;7.97;;;14.50;99.90;;;;;;4910380;29;20024;-77
2022/08/18 10:49:08;;;;;;;11.52;8.48;;;14.50;99.90;;;;;;4910799;29;20024;-75
2022/08/18 10:51:43;;;;;;;9.98;7.00;;;14.50;99.90;;;;;;4904997;29;20114;-75
2022/08/18 10:54:33;;;;;;;10.90;7.80;;;14.50;99.90;;;;;;4901465;29;20115;-76
2022/08/18 10:57:17;;;;;;;12.63;7.63;;;14.50;99.90;;;;;;4906633;29;20484;-75
2022/08/18 11:00:01;;;;;;;12.38;8.18;;;14.40;99.90;;;;;;4906460;29;20040;-77
2022/08/18 11:02:43;;;;;;;12.48;7.35;;;14.40;99.90;;;;;;4912022;29;20471;-76
2022/08/18 11:05:14;;;;;;;12.25;7.10;;;14.40;99.90;;;;;;4912339;29;20028;-76
2022/08/18 11:07:45;;;;;;;10.45;6.88;;;14.30;99.90;;;;;;4912460;29;20248;-76
2022/08/18 11:10:23;;;;;;;10.75;6.65;;;14.30;99.90;;;;;;4909249;29;20510;-75
2022/08/18 11:12:58;;;;;;;13.43;7.47;;;14.20;99.90;;;;;;4908793;29;20432;-75
2022/08/18 11:15:47;;;;;;;8.88;6.80;;;14.20;99.90;;;;;;4911070;29;20031;-76
2022/08/18 11:18:40;;;;;;;10.80;6.70;;;14.10;99.90;;;;;;4907902;29;20051;-76
2022/08/18 11:21:33;;;;;;;11.88;6.47;;;14.10;99.90;;;;;;4912587;29;20487;-76
2022/08/18 11:24:05;;;;;;;12.43;7.00;;;14.10;99.90;;;;;;4904488;29;20028;-77
2022/08/18 11:26:39;;;;;;;11.93;7.95;;;14.00;99.90;;;;;;4911822;29;20028;-76
2022/08/18 11:29:25;;;;;;;10.73;8.20;;;14.00;99.90;;;;;;4912896;29;20033;-76
2022/08/18 11:31:58;;;;;;;12.18;7.50;;;13.90;99.90;;;;;;4910001;29;20032;-77
2022/08/18 11:34:47;;;;;;;22.10;10.82;;;13.90;99.90;;;;;;4910945;29;20028;-77
2022/08/18 11:37:24;;;;;;;19.42;11.75;;;13.90;99.90;;;;;;4904113;29;20092;-76
2022/08/18 11:39:55;;;;;;;18.67;11.25;;;13.90;99.90;;;;;;4903725;29;20028;-77
2022/08/18 11:42:38;;;;;;;29.25;15.75;;;13.80;99.90;;;;;;4906238;29;20071;-76
2022/08/18 11:45:19;;;;;;;20.40;14.02;;;13.90;99.90;;;;;;4908613;29;20554;-76
2022/08/18 11:48:17;;;;;;;20.33;12.32;;;13.80;99.90;;;;;;4905282;29;20123;-79
2022/08/18 11:51:02;;;;;;;18.20;10.80;;;13.80;99.90;;;;;;4906067;29;20084;-75
2022/08/18 11:53:37;;;;;;;12.45;9.68;;;13.80;99.90;;;;;;4904386;29;20118;-74
2022/08/18 11:56:20;;;;;;;14.32;8.65;;;13.80;99.90;;;;;;4908761;29;20035;-74
2022/08/18 11:59:17;;;;;;;10.02;7.03;;;13.80;99.90;;;;;;4905928;29;20024;-73
2022/08/18 12:01:53;;;;;;;11.18;7.38;;;13.80;99.90;;;;;;4911564;29;20033;-74
2022/08/18 12:04:37;;;;;;;10.82;7.55;;;13.80;99.90;;;;;;4909216;29;20376;-74
2022/08/18 12:07:17;;;;;;;8.35;6.00;;;13.80;99.90;;;;;;4908875;29;20060;-74
2022/08/18 12:10:24;;;;;;;11.25;6.40;;;13.80;99.90;;;;;;4911891;29;20071;-76
2022/08/18 12:12:53;;;;;;;9.35;6.15;;;13.80;99.90;;;;;;4900782;29;20059;-76
2022/08/18 12:15:26;;;;;;;9.27;6.22;;;13.80;99.90;;;;;;4910383;29;20043;-76
2022/08/18 12:17:54;;;;;;;10.30;6.75;;;13.80;99.90;;;;;;4907862;29;20028;-76
2022/08/18 12:20:22;;;;;;;9.75;5.88;;;13.80;99.90;;;;;;4904147;29;20315;-76
2022/08/18 12:22:49;;;;;;;9.38;6.45;;;13.70;99.90;;;;;;4899753;29;20054;-75
2022/08/18 12:25:19;;;;;;;10.52;6.18;;;13.70;99.90;;;;;;4895879;29;20395;-74
2022/08/18 12:27:47;;;;;;;9.15;5.65;;;13.70;99.90;;;;;;4907593;29;20040;-80
2022/08/18 12:30:15;;;;;;;12.40;6.55;;;13.70;99.90;;;;;;4898301;29;20029;-76
2022/08/18 12:32:42;;;;;;;13.50;7.28;;;13.70;99.90;;;;;;4898464;29;20104;-76
2022/08/18 12:35:11;;;;;;;12.10;7.45;;;13.70;99.90;;;;;;4911012;29;20028;-75
2022/08/18 12:37:43;;;;;;;13.25;7.00;;;13.60;99.90;;;;;;4906396;29;20041;-74
2022/08/18 12:40:11;;;;;;;12.57;6.68;;;13.60;99.90;;;;;;4895248;29;20031;-74
2022/08/18 12:42:38;;;;;;;12.38;6.55;;;13.60;99.90;;;;;;4883566;29;20130;-77
2022/08/18 12:45:06;;;;;;;11.27;7.18;;;13.50;99.90;;;;;;4906534;29;20501;-76
2022/08/18 12:47:40;;;;;;;14.82;8.60;;;13.50;99.90;;;;;;4917485;29;20487;-75
2022/08/18 12:50:08;;;;;;;9.88;7.55;;;13.40;99.90;;;;;;4890872;29;20043;-75
2022/08/18 12:52:36;;;;;;;10.10;7.20;;;13.40;99.90;;;;;;4908657;29;20035;-73
2022/08/18 12:55:07;;;;;;;11.88;9.13;;;13.40;99.90;;;;;;4910677;29;20032;-73
2022/08/18 12:57:35;;;;;;;13.05;8.15;;;13.30;99.90;;;;;;4908018;29;20028;-73
2022/08/18 13:00:04;;;;;;;12.32;7.80;;;13.30;99.90;;;;;;4904937;29;20341;-77
2022/08/18 13:02:31;;;;;;;12.80;7.60;;;13.30;99.90;;;;;;4907686;29;20047;-76
2022/08/18 13:04:59;;;;;;;13.73;7.20;;;13.30;99.90;;;;;;4916936;29;20028;-79
2022/08/18 13:07:26;;;;;;;13.15;8.07;;;13.30;99.90;;;;;;4892357;29;20118;-78
2022/08/18 13:09:54;;;;;;;15.13;7.80;;;13.30;99.90;;;;;;4918405;29;20131;-76
2022/08/18 13:12:24;;;;;;;11.45;7.38;;;13.20;99.90;;;;;;4899699;29;20117;-76
2022/08/18 13:14:53;;;;;;;13.50;7.25;;;13.20;99.90;;;;;;4898307;29;20020;-80
2022/08/18 13:17:21;;;;;;;14.65;8.45;;;13.10;99.90;;;;;;4908336;29;20086;-73
2022/08/18 13:19:48;;;;;;;14.30;10.00;;;13.20;99.90;;;;;;4909747;29;20031;-72
2022/08/18 13:22:16;;;;;;;14.63;9.75;;;13.10;99.90;;;;;;4907202;29;20521;-73
2022/08/18 13:24:46;;;;;;;15.13;9.60;;;13.10;99.90;;;;;;4907374;29;20028;-72
2022/08/18 13:27:15;;;;;;;20.52;12.30;;;13.10;99.90;;;;;;4907539;29;20028;-76
2022/08/18 13:29:42;;;;;;;19.88;10.38;;;13.10;99.90;;;;;;4910699;29;20040;-75
2022/08/18 13:32:10;;;;;;;18.73;10.45;;;13.00;99.90;;;;;;4899768;29;20028;-74
2022/08/18 13:34:37;;;;;;;11.93;8.35;;;13.00;99.90;;;;;;4907962;29;20063;-75
2022/08/18 13:37:05;;;;;;;9.77;7.85;;;13.00;99.90;;;;;;4904345;29;20059;-75
2022/08/18 13:39:32;;;;;;;16.70;8.55;;;13.00;99.90;;;;;;4901296;29;20036;-75
2022/08/18 13:42:01;;;;;;;12.73;7.95;;;13.00;99.90;;;;;;4903299;29;20036;-75